Time;durP1;ratioP1;P1;durP2;ratioP2;P2;SDS_P1;SDS_P2;PMS_P1;PMS_P2;Temp;Humidity;BMP_temperature;BMP_pressure;BME280_temperature;BME280_humidity;BME280_pressure;Samples;Min_cycle;Max_cycle;Signal;HPM_P1;HPM_P2
2022/05/10 00:00:49;;;;;;;1999.90;999.90;;;17.40;99.90;;;;;;5009290;28;20283;-72
2022/05/10 00:03:15;;;;;;;1999.90;999.90;;;17.30;99.90;;;;;;5009124;28;20174;-72
2022/05/10 00:05:42;;;;;;;1999.90;999.90;;;17.20;99.90;;;;;;5008307;28;20761;-72
2022/05/10 00:08:11;;;;;;;1999.90;999.90;;;17.10;99.90;;;;;;5009662;28;20410;-73
2022/05/10 00:10:37;;;;;;;1999.90;999.90;;;17.00;99.90;;;;;;5008902;28;21018;-73
2022/05/10 00:13:04;;;;;;;1999.90;999.90;;;17.00;99.90;;;;;;5008756;28;20493;-72
2022/05/10 00:15:30;;;;;;;1999.90;999.90;;;16.90;99.90;;;;;;5008647;28;20424;-72
2022/05/10 00:17:56;;;;;;;1999.90;999.90;;;16.90;99.90;;;;;;5008962;28;20416;-72
2022/05/10 00:20:24;;;;;;;1999.90;999.90;;;16.70;99.90;;;;;;5008681;28;20203;-73
2022/05/10 00:22:50;;;;;;;1999.90;999.90;;;16.60;99.90;;;;;;5009593;28;20263;-72
2022/05/10 00:25:21;;;;;;;1999.90;999.90;;;16.60;99.90;;;;;;5007964;28;20439;-72
2022/05/10 00:27:47;;;;;;;1999.90;999.90;;;16.60;99.90;;;;;;5008722;28;20469;-73
2022/05/10 00:30:13;;;;;;;1999.90;999.90;;;16.50;99.90;;;;;;5009082;28;20424;-72
2022/05/10 00:32:40;;;;;;;1999.90;999.90;;;16.50;99.90;;;;;;5008779;28;20269;-72
2022/05/10 00:35:16;;;;;;;1999.90;999.90;;;16.50;99.90;;;;;;5007854;28;21132;-72
2022/05/10 00:37:44;;;;;;;1999.90;999.90;;;16.40;99.90;;;;;;5008870;28;20424;-72
2022/05/10 00:40:11;;;;;;;1999.90;999.90;;;16.40;99.90;;;;;;5008899;28;21026;-72
2022/05/10 00:42:55;;;;;;;1999.90;999.90;;;16.30;99.90;;;;;;5009153;28;20415;-72
2022/05/10 00:45:32;;;;;;;1999.90;999.90;;;16.20;99.90;;;;;;5012269;28;20436;-72
2022/05/10 00:48:11;;;;;;;1999.90;999.90;;;16.20;99.90;;;;;;5013177;28;20411;-72
2022/05/10 00:50:43;;;;;;;1999.90;999.90;;;16.20;99.90;;;;;;5012950;28;20421;-72
2022/05/10 00:53:20;;;;;;;1999.90;999.90;;;16.10;99.90;;;;;;5012677;28;20415;-72
2022/05/10 00:56:02;;;;;;;1999.90;999.90;;;16.20;99.90;;;;;;5012215;28;20430;-73
2022/05/10 00:58:41;;;;;;;1999.90;999.90;;;16.20;99.90;;;;;;5012937;28;20434;-72
2022/05/10 01:01:11;;;;;;;1999.90;999.90;;;16.20;99.90;;;;;;5012751;28;20860;-72
2022/05/10 01:03:44;;;;;;;1999.90;999.90;;;16.20;99.90;;;;;;5012270;28;20520;-72
2022/05/10 01:06:12;;;;;;;1999.90;999.90;;;16.20;99.90;;;;;;5011669;28;20422;-72
2022/05/10 01:08:44;;;;;;;1999.90;999.90;;;16.20;99.90;;;;;;5012309;28;20419;-73
2022/05/10 01:11:26;;;;;;;1999.90;999.90;;;16.10;99.90;;;;;;5012661;28;20456;-72
2022/05/10 01:14:08;;;;;;;1999.90;999.90;;;16.10;99.90;;;;;;5012280;28;20438;-72
2022/05/10 01:16:35;;;;;;;1999.90;999.90;;;16.00;99.90;;;;;;5012179;28;20422;-72
2022/05/10 01:19:00;;;;;;;1999.90;999.90;;;15.90;99.90;;;;;;5012635;28;20826;-72
2022/05/10 01:21:57;;;;;;;1999.90;999.90;;;15.80;99.90;;;;;;5011877;28;20500;-72
2022/05/10 01:24:49;;;;;;;1999.90;999.90;;;15.80;99.90;;;;;;5011234;28;20731;-72
2022/05/10 01:27:36;;;;;;;1999.90;999.90;;;15.80;99.90;;;;;;5003839;28;20502;-72
2022/05/10 01:30:07;;;;;;;1999.90;999.90;;;15.80;99.90;;;;;;5012390;28;20475;-72
2022/05/10 01:35:33;;;;;;;1999.90;999.90;;;15.70;99.90;;;;;;5010959;28;20412;-72
2022/05/10 01:38:05;;;;;;;1999.90;999.90;;;15.70;99.90;;;;;;5012134;28;20794;-72
2022/05/10 01:40:47;;;;;;;1999.90;999.90;;;15.70;99.90;;;;;;5012098;28;20470;-72
2022/05/10 01:43:19;;;;;;;1999.90;999.90;;;15.70;99.90;;;;;;5011829;28;20419;-72
2022/05/10 01:45:54;;;;;;;1999.90;999.90;;;15.70;99.90;;;;;;5011574;28;20461;-72
2022/05/10 01:48:22;;;;;;;1999.90;999.90;;;15.70;99.90;;;;;;5012095;28;20979;-72
2022/05/10 01:51:02;;;;;;;1999.90;999.90;;;15.70;99.90;;;;;;5011389;28;20413;-72
2022/05/10 01:53:34;;;;;;;1999.90;999.90;;;15.70;99.90;;;;;;5011207;28;20447;-72
2022/05/10 01:56:03;;;;;;;1999.90;999.90;;;15.70;99.90;;;;;;5009743;28;20501;-72
2022/05/10 01:58:31;;;;;;;1999.90;999.90;;;15.60;99.90;;;;;;5011518;28;20421;-72
2022/05/10 02:01:01;;;;;;;1999.90;999.90;;;15.70;99.90;;;;;;5011803;28;20448;-72
2022/05/10 02:03:27;;;;;;;1999.90;999.90;;;15.70;99.90;;;;;;5011320;28;20433;-72
2022/05/10 02:06:17;;;;;;;1999.90;999.90;;;15.60;99.90;;;;;;5010356;28;20415;-72
2022/05/10 02:09:04;;;;;;;1999.90;999.90;;;15.60;99.90;;;;;;5011369;28;20170;-72
2022/05/10 02:11:34;;;;;;;1999.90;999.90;;;15.50;99.90;;;;;;5011657;28;20467;-72
2022/05/10 02:14:08;;;;;;;1999.90;999.90;;;15.60;99.90;;;;;;5010795;28;20881;-73
2022/05/10 02:16:54;;;;;;;1999.90;999.90;;;15.50;99.90;;;;;;5011144;28;20498;-72
2022/05/10 02:19:41;;;;;;;1999.90;999.90;;;15.40;99.90;;;;;;5011530;28;20447;-72
2022/05/10 02:22:12;;;;;;;1999.90;999.90;;;15.30;99.90;;;;;;5010997;28;20453;-72
2022/05/10 02:24:50;;;;;;;1999.90;999.90;;;15.20;99.90;;;;;;5010737;28;20553;-72
2022/05/10 02:27:19;;;;;;;1999.90;999.90;;;15.10;99.90;;;;;;4993965;28;20863;-72
2022/05/10 02:29:52;;;;;;;1999.90;999.90;;;15.10;99.90;;;;;;5011202;28;20989;-72
2022/05/10 02:35:14;;;;;;;1999.90;999.90;;;15.10;99.90;;;;;;5010618;28;20518;-73
2022/05/10 02:37:40;;;;;;;1999.90;999.90;;;15.10;99.90;;;;;;5011176;28;20808;-72
2022/05/10 02:40:07;;;;;;;1999.90;999.90;;;15.20;99.90;;;;;;5010364;28;20638;-72
2022/05/10 02:42:34;;;;;;;1999.90;999.90;;;15.20;99.90;;;;;;5010768;28;20417;-72
2022/05/10 02:45:00;;;;;;;1999.90;999.90;;;15.20;99.90;;;;;;5010173;28;20457;-72
2022/05/10 02:47:35;;;;;;;1999.90;999.90;;;15.20;99.90;;;;;;5010277;28;20490;-72
2022/05/10 02:50:02;;;;;;;1999.90;999.90;;;15.20;99.90;;;;;;5010187;28;20808;-72
2022/05/10 02:52:28;;;;;;;1999.90;999.90;;;15.20;99.90;;;;;;5010815;28;20426;-72
2022/05/10 02:55:09;;;;;;;1999.90;999.90;;;15.20;99.90;;;;;;5009655;28;20423;-73
2022/05/10 02:57:36;;;;;;;1999.90;999.90;;;15.20;99.90;;;;;;5010794;28;20203;-73
2022/05/10 03:00:06;;;;;;;1999.90;999.90;;;15.10;99.90;;;;;;5009973;28;20415;-72
2022/05/10 03:02:37;;;;;;;1999.90;999.90;;;15.10;99.90;;;;;;5010063;28;20838;-73
2022/05/10 03:05:04;;;;;;;1999.90;999.90;;;15.10;99.90;;;;;;4960396;22;20490;-68
2022/05/10 03:07:31;;;;;;;1999.90;999.90;;;15.10;99.90;;;;;;4929934;29;20451;-67
2022/05/10 03:09:56;;;;;;;1999.90;999.90;;;15.10;99.90;;;;;;4929472;28;20835;-68
2022/05/10 03:12:22;;;;;;;1999.90;999.90;;;15.00;99.90;;;;;;4930240;29;20425;-68
2022/05/10 03:14:48;;;;;;;1999.90;999.90;;;15.00;99.90;;;;;;4929068;29;20584;-70
2022/05/10 03:17:14;;;;;;;1999.90;999.90;;;15.00;99.90;;;;;;4929702;29;20494;-68
2022/05/10 03:19:41;;;;;;;1999.90;999.90;;;14.90;99.90;;;;;;4930000;29;20169;-70
2022/05/10 03:22:08;;;;;;;1999.90;999.90;;;14.90;99.90;;;;;;4929620;29;20747;-70
2022/05/10 03:24:34;;;;;;;1999.90;999.90;;;14.90;99.90;;;;;;4928864;28;20428;-70
2022/05/10 03:27:01;;;;;;;1999.90;999.90;;;14.90;99.90;;;;;;4929919;29;20412;-70
2022/05/10 03:29:28;;;;;;;1999.90;999.90;;;14.90;99.90;;;;;;4929298;29;20509;-70
2022/05/10 03:31:53;;;;;;;1999.90;999.90;;;14.80;99.90;;;;;;4929556;28;20457;-70
2022/05/10 03:37:04;;;;;;;1999.90;999.90;;;14.80;99.90;;;;;;4929813;29;21134;-70
2022/05/10 03:39:29;;;;;;;1999.90;999.90;;;14.80;99.90;;;;;;4929095;29;20423;-70
2022/05/10 03:41:55;;;;;;;1999.90;999.90;;;14.80;99.90;;;;;;4929240;29;20208;-70
2022/05/10 03:44:21;;;;;;;1999.90;999.90;;;14.80;99.90;;;;;;4929015;29;20296;-70
2022/05/10 03:46:47;;;;;;;1999.90;999.90;;;14.80;99.90;;;;;;4929345;29;20268;-70
2022/05/10 03:49:13;;;;;;;1999.90;999.90;;;14.80;99.90;;;;;;4929095;28;20499;-70
2022/05/10 03:51:38;;;;;;;1999.90;999.90;;;14.80;99.90;;;;;;4929727;29;20433;-70
2022/05/10 03:54:04;;;;;;;1999.90;999.90;;;14.80;99.90;;;;;;4928201;28;20489;-70
2022/05/10 03:56:30;;;;;;;1999.90;999.90;;;14.80;99.90;;;;;;4929568;29;20189;-70
2022/05/10 03:58:55;;;;;;;1999.90;999.90;;;14.80;99.90;;;;;;4929215;29;20237;-70
2022/05/10 04:01:21;;;;;;;1999.90;999.90;;;14.80;99.90;;;;;;4928730;29;20298;-70
2022/05/10 04:03:48;;;;;;;1999.90;999.90;;;14.80;99.90;;;;;;4929240;28;20218;-70
2022/05/10 04:06:14;;;;;;;1999.90;999.90;;;14.80;99.90;;;;;;4928391;29;20423;-70
2022/05/10 04:08:39;;;;;;;1999.90;999.90;;;14.80;99.90;;;;;;4928726;29;20469;-70
2022/05/10 04:11:07;;;;;;;1999.90;999.90;;;14.80;99.90;;;;;;4929342;29;20427;-70
2022/05/10 04:13:33;;;;;;;1999.90;999.90;;;14.70;99.90;;;;;;4928834;29;20294;-70
2022/05/10 04:15:59;;;;;;;1999.90;999.90;;;14.70;99.90;;;;;;4928018;29;20556;-70
2022/05/10 04:18:25;;;;;;;1999.90;999.90;;;14.80;99.90;;;;;;4928207;29;20433;-70
2022/05/10 04:20:51;;;;;;;1999.90;999.90;;;14.80;99.90;;;;;;4928484;29;20841;-71
2022/05/10 04:23:16;;;;;;;1999.90;999.90;;;14.80;99.90;;;;;;4928782;28;20423;-70
2022/05/10 04:25:42;;;;;;;1999.90;999.90;;;14.80;99.90;;;;;;4928247;28;20176;-70
2022/05/10 04:28:08;;;;;;;1999.90;999.90;;;14.90;99.90;;;;;;4928521;29;20201;-70
2022/05/10 04:30:34;;;;;;;1999.90;999.90;;;14.90;99.90;;;;;;4928956;29;20425;-71
2022/05/10 04:33:00;;;;;;;1999.90;999.90;;;14.80;99.90;;;;;;4928513;29;20462;-70
2022/05/10 04:35:25;;;;;;;1999.90;999.90;;;14.80;99.90;;;;;;4927896;29;20180;-71
2022/05/10 04:37:51;;;;;;;1999.90;999.90;;;14.80;99.90;;;;;;4928905;29;20186;-70
2022/05/10 04:43:00;;;;;;;1999.90;999.90;;;14.80;99.90;;;;;;4928629;29;20205;-70
2022/05/10 04:45:27;;;;;;;1999.90;999.90;;;14.80;99.90;;;;;;4927691;28;20429;-71
2022/05/10 04:47:53;;;;;;;1999.90;999.90;;;14.80;99.90;;;;;;4928929;28;20216;-70
2022/05/10 04:50:19;;;;;;;1999.90;999.90;;;14.80;99.90;;;;;;4928200;28;20449;-70
2022/05/10 04:52:44;;;;;;;1999.90;999.90;;;14.90;99.90;;;;;;4928330;29;20182;-70
2022/05/10 04:55:10;;;;;;;1999.90;999.90;;;14.80;99.90;;;;;;4928132;29;20225;-70
2022/05/10 04:57:37;;;;;;;1999.90;999.90;;;14.90;99.90;;;;;;4928141;28;20242;-70
2022/05/10 05:00:05;;;;;;;1999.90;999.90;;;14.90;99.90;;;;;;4928409;29;20195;-71
2022/05/10 05:02:30;;;;;;;1999.90;999.90;;;14.90;99.90;;;;;;4928530;29;21618;-70
2022/05/10 05:04:56;;;;;;;1999.90;999.90;;;15.00;99.90;;;;;;4927213;29;20550;-71
2022/05/10 05:07:21;;;;;;;1999.90;999.90;;;15.10;99.90;;;;;;4928584;29;20703;-70
2022/05/10 05:09:47;;;;;;;1999.90;999.90;;;15.10;99.90;;;;;;4927898;29;20731;-70
2022/05/10 05:12:13;;;;;;;1999.90;999.90;;;15.20;99.90;;;;;;4927973;29;20258;-70
2022/05/10 05:14:38;;;;;;;1999.90;999.90;;;15.30;99.90;;;;;;4927929;29;20238;-70
2022/05/10 05:17:04;;;;;;;1999.90;999.90;;;15.40;99.90;;;;;;4928079;29;20224;-71
2022/05/10 05:19:30;;;;;;;1999.90;999.90;;;15.40;99.90;;;;;;4928007;29;20183;-71
2022/05/10 05:21:55;;;;;;;1999.90;999.90;;;15.50;99.90;;;;;;4928243;29;20301;-70
2022/05/10 05:24:21;;;;;;;1999.90;999.90;;;15.50;99.90;;;;;;4927171;29;20251;-70
2022/05/10 05:26:47;;;;;;;1999.90;999.90;;;15.60;99.90;;;;;;4928332;29;20218;-70
2022/05/10 05:29:13;;;;;;;1999.90;999.90;;;15.60;99.90;;;;;;4929108;28;20268;-70
2022/05/10 05:31:39;;;;;;;1999.90;999.90;;;15.60;99.90;;;;;;4931125;28;20434;-70
2022/05/10 05:34:05;;;;;;;1999.90;999.90;;;15.70;99.90;;;;;;4930800;29;20454;-70
2022/05/10 05:36:31;;;;;;;1999.90;999.90;;;15.80;99.90;;;;;;4931124;28;20415;-70
2022/05/10 05:38:57;;;;;;;1999.90;999.90;;;15.80;99.90;;;;;;4931171;29;20239;-70
2022/05/10 05:41:22;;;;;;;1999.90;999.90;;;15.90;99.90;;;;;;4931180;29;20292;-70
2022/05/10 05:43:48;;;;;;;1999.90;999.90;;;16.00;99.90;;;;;;4930814;28;20204;-71
2022/05/10 05:46:13;;;;;;;1999.90;999.90;;;16.00;99.90;;;;;;4930631;29;20242;-71
2022/05/10 05:48:39;;;;;;;1999.90;999.90;;;16.10;99.90;;;;;;4931127;29;20184;-70
2022/05/10 05:51:05;;;;;;;1999.90;999.90;;;16.10;99.90;;;;;;4930610;29;20220;-70
2022/05/10 05:53:31;;;;;;;1999.90;999.90;;;16.20;99.90;;;;;;4931380;29;20661;-70
2022/05/10 05:56:06;;;;;;;1999.90;999.90;;;16.30;99.90;;;;;;4930089;29;20515;-70
2022/05/10 05:58:31;;;;;;;1999.90;999.90;;;16.30;99.90;;;;;;4930702;29;20194;-71
2022/05/10 06:00:57;;;;;;;1999.90;999.90;;;16.40;99.90;;;;;;4930490;28;20520;-71
2022/05/10 06:03:23;;;;;;;1999.90;999.90;;;16.40;99.90;;;;;;4930849;29;20194;-70
2022/05/10 06:05:51;;;;;;;1999.90;999.90;;;16.50;99.90;;;;;;4928738;29;20257;-70
2022/05/10 06:08:19;;;;;;;1999.90;999.90;;;16.50;99.90;;;;;;4929904;28;20266;-71
2022/05/10 06:10:49;;;;;;;1999.90;999.90;;;16.60;99.90;;;;;;4929783;29;20449;-70
2022/05/10 06:13:18;;;;;;;1999.90;999.90;;;16.70;99.90;;;;;;4929665;28;20426;-71
2022/05/10 06:15:44;;;;;;;1999.90;999.90;;;16.70;99.90;;;;;;4928525;29;20426;-71
2022/05/10 06:18:09;;;;;;;1999.90;999.90;;;16.70;99.90;;;;;;4930071;29;21099;-70
2022/05/10 06:20:35;;;;;;;1999.90;999.90;;;16.80;99.90;;;;;;4929055;29;20568;-70
2022/05/10 06:23:01;;;;;;;1999.90;999.90;;;17.00;99.90;;;;;;4929455;28;20184;-70
2022/05/10 06:25:28;;;;;;;1999.90;999.90;;;17.10;99.90;;;;;;4929230;28;20796;-70
2022/05/10 06:27:55;;;;;;;1999.90;999.90;;;17.30;99.90;;;;;;4929309;29;20412;-71
2022/05/10 06:30:22;;;;;;;1999.90;999.90;;;17.40;99.90;;;;;;4929011;28;20452;-71
2022/05/10 06:32:47;;;;;;;1999.90;999.90;;;17.60;99.90;;;;;;4929748;29;20455;-70
2022/05/10 06:35:14;;;;;;;1999.90;999.90;;;17.60;99.90;;;;;;4928285;28;20969;-71
2022/05/10 06:40:24;;;;;;;1999.90;999.90;;;17.70;99.90;;;;;;4927985;29;20523;-70
2022/05/10 06:42:50;;;;;;;1999.90;999.90;;;17.80;99.90;;;;;;4929584;29;20867;-71
2022/05/10 06:45:18;;;;;;;1999.90;999.90;;;17.70;99.90;;;;;;4928378;29;20197;-70
2022/05/10 06:47:46;;;;;;;1999.90;999.90;;;17.80;99.90;;;;;;4929131;29;20534;-70
2022/05/10 06:50:20;;;;;;;1999.90;999.90;;;17.80;99.90;;;;;;4929301;29;20515;-71
2022/05/10 06:52:49;;;;;;;1999.90;999.90;;;17.80;99.90;;;;;;4929676;28;20511;-71
2022/05/10 06:55:15;;;;;;;1999.90;999.90;;;18.00;99.90;;;;;;4928146;29;20451;-71
2022/05/10 06:57:40;;;;;;;1999.90;999.90;;;18.10;99.90;;;;;;4929038;28;20413;-70
2022/05/10 07:00:10;;;;;;;1999.90;999.90;;;18.20;99.90;;;;;;4929198;29;20665;-71
2022/05/10 07:02:35;;;;;;;1999.90;999.90;;;18.30;99.90;;;;;;4928964;29;20189;-71
2022/05/10 07:05:02;;;;;;;1999.90;999.90;;;18.50;99.90;;;;;;4891752;29;1087377;-71
2022/05/10 07:07:27;;;;;;;1999.90;999.90;;;18.70;99.90;;;;;;4930419;29;20730;-71
2022/05/10 07:09:54;;;;;;;1999.90;999.90;;;18.90;99.90;;;;;;4929612;29;20408;-71
2022/05/10 07:12:20;;;;;;;1999.90;999.90;;;19.10;99.90;;;;;;4929917;29;20202;-71
2022/05/10 07:14:46;;;;;;;1999.90;999.90;;;19.40;99.90;;;;;;4929243;29;21156;-71
2022/05/10 07:17:12;;;;;;;1999.90;999.90;;;19.50;99.90;;;;;;4929565;29;20445;-71
2022/05/10 07:19:38;;;;;;;1999.90;999.90;;;19.80;99.90;;;;;;4929556;29;20194;-71
2022/05/10 07:22:04;;;;;;;1999.90;999.90;;;20.00;99.90;;;;;;4929680;29;20441;-71
2022/05/10 07:24:30;;;;;;;1999.90;999.90;;;20.20;99.90;;;;;;4928539;29;20277;-71
2022/05/10 07:26:55;;;;;;;1999.90;999.90;;;20.40;99.90;;;;;;4929951;28;20419;-71
2022/05/10 07:29:22;;;;;;;1999.90;999.90;;;20.50;99.90;;;;;;4929189;29;20197;-71
2022/05/10 07:31:48;;;;;;;1999.90;999.90;;;20.70;99.90;;;;;;4929428;28;20564;-70
2022/05/10 07:34:14;;;;;;;1999.90;999.90;;;20.70;99.90;;;;;;4929019;29;20412;-72
2022/05/10 07:36:40;;;;;;;1999.90;999.90;;;20.90;99.90;;;;;;4929279;29;20909;-71
2022/05/10 07:39:10;;;;;;;1999.90;999.90;;;21.00;99.90;;;;;;4928970;29;20424;-71
2022/05/10 07:41:36;;;;;;;1999.90;999.90;;;21.00;99.90;;;;;;4929669;29;20570;-71
2022/05/10 07:44:03;;;;;;;1999.90;999.90;;;21.10;99.90;;;;;;4928350;29;20420;-71
2022/05/10 07:46:28;;;;;;;1999.90;999.90;;;21.10;99.90;;;;;;4929237;29;20754;-71
2022/05/10 07:48:54;;;;;;;1999.90;999.90;;;21.30;99.90;;;;;;4929520;28;20537;-71
2022/05/10 07:51:21;;;;;;;1999.90;999.90;;;21.40;99.90;;;;;;4928788;28;20181;-71
2022/05/10 07:53:47;;;;;;;1999.90;999.90;;;21.60;99.90;;;;;;4929002;29;20213;-71
2022/05/10 07:56:13;;;;;;;1999.90;999.90;;;21.70;99.90;;;;;;4928781;29;20445;-71
2022/05/10 07:58:38;;;;;;;1999.90;999.90;;;21.80;99.90;;;;;;4928838;29;20396;-71
2022/05/10 08:01:07;;;;;;;1999.90;999.90;;;21.90;99.90;;;;;;4929140;28;20295;-70
2022/05/10 08:03:33;;;;;;;1999.90;999.90;;;21.90;99.90;;;;;;4928971;29;20209;-71
2022/05/10 08:06:00;;;;;;;1999.90;999.90;;;22.00;99.90;;;;;;4928247;29;20432;-71
2022/05/10 08:08:27;;;;;;;1999.90;999.90;;;22.10;99.90;;;;;;4929258;29;20418;-71
2022/05/10 08:10:54;;;;;;;1999.90;999.90;;;22.20;99.90;;;;;;4929092;28;20426;-71
2022/05/10 08:13:25;;;;;;;1999.90;999.90;;;22.30;99.90;;;;;;4928717;29;20412;-70
2022/05/10 08:15:52;;;;;;;1999.90;999.90;;;22.50;99.90;;;;;;4928508;29;20941;-71
2022/05/10 08:18:19;;;;;;;1999.90;999.90;;;22.70;99.90;;;;;;4929292;28;20402;-71
2022/05/10 08:20:45;;;;;;;1999.90;999.90;;;22.90;99.90;;;;;;4928393;29;20448;-70
2022/05/10 08:23:17;;;;;;;1999.90;999.90;;;23.10;99.90;;;;;;4928760;28;20419;-70
2022/05/10 08:25:43;;;;;;;1999.90;999.90;;;23.30;99.90;;;;;;4928671;29;20430;-71
2022/05/10 08:28:13;;;;;;;1999.90;999.90;;;23.50;99.90;;;;;;4924491;28;20407;-71
2022/05/10 08:30:44;;;;;;;1999.90;999.90;;;23.70;99.90;;;;;;4927631;28;20187;-71
2022/05/10 08:33:10;;;;;;;1999.90;999.90;;;23.90;99.90;;;;;;4927495;28;20438;-71
2022/05/10 08:35:39;;;;;;;1999.90;999.90;;;24.10;99.90;;;;;;4927746;28;20398;-70
2022/05/10 08:38:05;;;;;;;1999.90;999.90;;;24.10;99.90;;;;;;4928159;28;20433;-69
2022/05/10 08:40:40;;;;;;;1999.90;999.90;;;24.20;99.90;;;;;;4927824;28;20597;-70
2022/05/10 08:43:22;;;;;;;1999.90;999.90;;;24.20;99.90;;;;;;4927852;28;20420;-70
2022/05/10 08:45:48;;;;;;;1999.90;999.90;;;24.40;99.90;;;;;;4926909;28;20924;-70
2022/05/10 08:48:14;;;;;;;1999.90;999.90;;;24.40;99.90;;;;;;4928250;28;20411;-67
2022/05/10 08:50:47;;;;;;;1999.90;999.90;;;24.50;99.90;;;;;;4927401;28;20402;-67
2022/05/10 08:53:14;;;;;;;1999.90;999.90;;;24.50;99.90;;;;;;4927387;28;20435;-67
2022/05/10 08:56:05;;;;;;;1999.90;999.90;;;24.60;99.90;;;;;;4927233;28;21149;-68
2022/05/10 08:58:44;;;;;;;1999.90;999.90;;;24.60;99.90;;;;;;4927646;28;20400;-67
2022/05/10 09:01:23;;;;;;;1999.90;999.90;;;24.70;99.90;;;;;;4927267;28;20470;-70
2022/05/10 09:03:55;;;;;;;1999.90;999.90;;;24.90;99.90;;;;;;4928065;28;20450;-70
2022/05/10 09:06:37;;;;;;;1999.90;999.90;;;25.10;99.90;;;;;;4930080;28;20423;-70
2022/05/10 09:09:28;;;;;;;1999.90;999.90;;;25.20;99.90;;;;;;4927324;28;21015;-67
2022/05/10 09:12:18;;;;;;;1999.90;999.90;;;25.50;99.90;;;;;;4930823;28;20427;-67
2022/05/10 09:14:59;;;;;;;1999.90;999.90;;;25.70;99.90;;;;;;4929080;28;20427;-67
2022/05/10 09:17:29;;;;;;;1999.90;999.90;;;26.10;99.90;;;;;;4930260;28;20804;-67
2022/05/10 09:19:55;;;;;;;1999.90;999.90;;;26.40;96.80;;;;;;4929913;28;20431;-67
2022/05/10 09:22:33;;;;;;;1999.90;999.90;;;26.60;95.20;;;;;;4930426;28;20517;-67
2022/05/10 09:24:58;;;;;;;1999.90;999.90;;;26.80;94.60;;;;;;4930096;28;20462;-67
2022/05/10 09:27:34;;;;;;;1999.90;999.90;;;26.80;80.50;;;;;;4929961;28;20858;-67
2022/05/10 09:30:00;;;;;;;1999.90;999.90;;;26.70;79.80;;;;;;4929367;28;20179;-69
2022/05/10 09:35:25;;;;;;;1999.90;999.90;;;26.10;67.50;;;;;;4929516;28;20454;-69
2022/05/10 09:37:52;;;;;;;1999.90;999.90;;;25.90;62.00;;;;;;4929266;28;20429;-70
2022/05/10 09:40:19;;;;;;;1999.90;999.90;;;25.70;62.40;;;;;;4929757;28;20797;-70
2022/05/10 09:42:47;;;;;;;1999.90;999.90;;;25.80;60.40;;;;;;4930636;28;20431;-69
2022/05/10 09:45:20;;;;;;;1999.90;999.90;;;25.90;62.70;;;;;;4928882;28;20517;-67
2022/05/10 09:47:58;;;;;;;1999.90;999.90;;;26.00;59.20;;;;;;4930077;28;20458;-67
2022/05/10 09:50:36;;;;;;;1999.90;999.90;;;25.90;54.90;;;;;;4929697;28;20423;-67
2022/05/10 09:53:12;;;;;;;1999.90;999.90;;;26.00;59.80;;;;;;4929116;28;20439;-71
2022/05/10 09:55:41;;;;;;;1999.90;999.90;;;26.10;52.50;;;;;;4912081;28;20427;-68
2022/05/10 09:58:19;;;;;;;1999.90;999.90;;;26.20;51.50;;;;;;4912275;28;20427;-67
2022/05/10 10:00:52;;;;;;;1999.90;999.90;;;26.30;46.10;;;;;;4911996;28;20455;-70
2022/05/10 10:03:27;;;;;;;1999.90;999.90;;;26.20;47.20;;;;;;4929572;28;20426;-68
2022/05/10 10:05:56;;;;;;;1999.90;999.90;;;26.20;44.60;;;;;;4929945;28;20453;-68
2022/05/10 10:08:53;;;;;;;1999.90;999.90;;;26.30;48.00;;;;;;4930166;28;20503;-70
2022/05/10 10:11:21;;;;;;;1999.90;999.90;;;26.40;46.70;;;;;;4917361;28;20438;-70
2022/05/10 10:14:09;;;;;;;1999.90;999.90;;;26.60;46.50;;;;;;4929491;28;20436;-70
2022/05/10 10:16:48;;;;;;;1999.90;999.90;;;26.80;39.50;;;;;;4928059;28;20869;-70
2022/05/10 10:19:25;;;;;;;1999.90;999.90;;;27.30;41.20;;;;;;4930144;28;20419;-70
2022/05/10 10:22:06;;;;;;;1999.90;999.90;;;27.20;37.10;;;;;;4928940;28;20813;-69
2022/05/10 10:24:56;;;;;;;1999.90;999.90;;;27.00;37.40;;;;;;4928767;28;20435;-70
2022/05/10 10:28:04;;;;;;;1999.90;999.90;;;26.60;39.40;;;;;;4928199;28;20439;-69
2022/05/10 10:30:37;;;;;;;1999.90;999.90;;;26.40;38.10;;;;;;4928875;29;20404;-69
2022/05/10 10:33:34;;;;;;;1999.90;999.90;;;26.40;37.00;;;;;;4931105;28;20412;-67
2022/05/10 10:36:11;;;;;;;1999.90;999.90;;;26.40;37.10;;;;;;4918593;28;20475;-69
2022/05/10 10:39:06;;;;;;;1999.90;999.90;;;26.40;37.10;;;;;;4930900;28;20503;-69
2022/05/10 10:41:49;;;;;;;1999.90;999.90;;;26.30;33.30;;;;;;4931190;28;20470;-69
2022/05/10 10:44:30;;;;;;;1999.90;999.90;;;26.00;34.90;;;;;;4929410;28;20439;-70
2022/05/10 10:47:18;;;;;;;1999.90;999.90;;;25.90;36.40;;;;;;4930835;28;20390;-69
2022/05/10 10:50:06;;;;;;;1999.90;999.90;;;25.70;37.60;;;;;;4931255;28;20407;-69
2022/05/10 10:52:32;;;;;;;1999.90;999.90;;;25.70;38.40;;;;;;4931314;28;20432;-71
2022/05/10 10:54:58;;;;;;;1999.90;999.90;;;25.70;36.90;;;;;;4957829;28;20905;-70
2022/05/10 10:57:34;;;;;;;1999.90;999.90;;;25.70;37.60;;;;;;5029636;28;20168;-70
2022/05/10 11:00:24;;;;;;;1999.90;999.90;;;25.70;37.90;;;;;;5029678;28;20837;-70
2022/05/10 11:02:59;;;;;;;1999.90;999.90;;;25.70;37.90;;;;;;5029962;28;20439;-70
2022/05/10 11:05:34;;;;;;;1999.90;999.90;;;25.80;39.30;;;;;;5028857;28;20470;-70
2022/05/10 11:08:24;;;;;;;1999.90;999.90;;;25.90;37.50;;;;;;5029202;28;20481;-70
2022/05/10 11:11:18;;;;;;;1999.90;999.90;;;26.00;39.50;;;;;;5029544;28;20911;-70
2022/05/10 11:13:49;;;;;;;1999.90;999.90;;;26.10;38.60;;;;;;5028667;28;20434;-71
2022/05/10 11:16:27;;;;;;;1999.90;999.90;;;26.20;35.90;;;;;;5028449;28;20436;-71
2022/05/10 11:19:38;;;;;;;1999.90;999.90;;;26.30;36.90;;;;;;5029106;28;20446;-71
2022/05/10 11:22:22;;;;;;;1999.90;999.90;;;26.50;36.70;;;;;;4997611;28;20525;-70
2022/05/10 11:24:55;;;;;;;1999.90;999.90;;;26.80;40.10;;;;;;5027896;28;20506;-68
2022/05/10 11:27:39;;;;;;;1999.90;999.90;;;27.10;40.90;;;;;;5028468;28;20425;-68
2022/05/10 11:30:07;;;;;;;1999.90;999.90;;;27.20;35.90;;;;;;5028912;28;20415;-68
2022/05/10 11:32:56;;;;;;;1999.90;999.90;;;27.20;37.60;;;;;;5028928;28;20443;-71
2022/05/10 11:35:25;;;;;;;1999.90;999.90;;;27.40;34.10;;;;;;5028247;28;20430;-68
2022/05/10 11:38:05;;;;;;;1999.90;999.90;;;27.50;32.20;;;;;;5028891;28;20414;-68
2022/05/10 11:40:45;;;;;;;1999.90;999.90;;;27.60;31.50;;;;;;5028831;28;20413;-68
2022/05/10 11:43:33;;;;;;;1999.90;999.90;;;27.50;32.80;;;;;;5026102;28;20842;-68
2022/05/10 11:46:16;;;;;;;1999.90;999.90;;;27.30;32.30;;;;;;4928477;28;20431;-68
2022/05/10 11:49:00;;;;;;;1999.90;999.90;;;27.10;33.80;;;;;;4928779;28;20407;-70
2022/05/10 11:51:50;;;;;;;1999.90;999.90;;;27.20;34.40;;;;;;4928346;28;20419;-71
2022/05/10 11:54:34;;;;;;;1999.90;999.90;;;27.40;35.20;;;;;;4928395;28;20435;-71
2022/05/10 11:57:00;;;;;;;1999.90;999.90;;;27.80;35.40;;;;;;4928799;28;20446;-68
2022/05/10 11:59:31;;;;;;;1999.90;999.90;;;28.40;29.60;;;;;;4927350;28;20424;-68
2022/05/10 12:01:58;;;;;;;1999.90;999.90;;;28.80;28.40;;;;;;4928818;28;21192;-68
2022/05/10 12:04:40;;;;;;;1999.90;999.90;;;28.80;25.80;;;;;;4927744;28;20479;-68
2022/05/10 12:07:22;;;;;;;1999.90;999.90;;;28.30;26.00;;;;;;4928244;28;20977;-68
2022/05/10 12:10:00;;;;;;;1999.90;999.90;;;28.10;26.90;;;;;;4928291;28;20415;-68
2022/05/10 12:12:31;;;;;;;1999.90;999.90;;;28.30;27.50;;;;;;4928038;28;20411;-68
2022/05/10 12:21:19;;;;;;;1999.90;999.90;;;29.90;27.70;;;;;;4875893;28;20470;-68
2022/05/10 12:24:07;;;;;;;1999.90;999.90;;;30.60;26.50;;;;;;4928289;28;20435;-68
2022/05/10 12:26:43;;;;;;;1999.90;999.90;;;30.70;26.20;;;;;;4928233;28;20419;-68
2022/05/10 12:29:38;;;;;;;1999.90;999.90;;;30.60;24.00;;;;;;4927750;28;20427;-68
2022/05/10 12:32:29;;;;;;;1999.90;999.90;;;30.30;24.40;;;;;;4907171;28;20432;-68
2022/05/10 12:34:58;;;;;;;1999.90;999.90;;;30.20;25.00;;;;;;4926901;28;20498;-68
2022/05/10 12:37:30;;;;;;;1999.90;999.90;;;30.60;24.60;;;;;;4928147;28;20449;-68
2022/05/10 12:40:08;;;;;;;1999.90;999.90;;;30.60;22.10;;;;;;4927252;28;20955;-68
2022/05/10 12:42:39;;;;;;;1999.90;999.90;;;30.60;23.30;;;;;;4927834;28;21109;-68